createdAt,value
2019-05-19T00:04:18.282Z,30.23
2019-05-19T00:09:20.213Z,28.63
2019-05-19T00:14:24.265Z,24.93
2019-05-19T00:19:27.140Z,24.17
2019-05-19T00:24:29.288Z,26.97
2019-05-19T00:29:31.537Z,28.77
2019-05-19T00:34:33.466Z,24.27
2019-05-19T00:39:35.436Z,23.17
2019-05-19T00:44:37.462Z,22.93
2019-05-19T00:49:41.735Z,27.17
2019-05-19T00:54:43.375Z,26.20
2019-05-19T00:59:45.400Z,23.37
2019-05-19T01:04:47.502Z,22.57
2019-05-19T01:09:50.094Z,23.00
2019-05-19T01:14:52.190Z,21.53
2019-05-19T01:19:56.283Z,19.83
2019-05-19T01:24:58.716Z,22.57
2019-05-19T01:30:00.771Z,19.87
2019-05-19T01:35:03.987Z,19.03
2019-05-19T01:40:07.443Z,16.93
2019-05-19T01:45:09.801Z,19.83
2019-05-19T01:50:19.173Z,17.30
2019-05-19T01:55:15.933Z,20.07
2019-05-19T02:00:18.277Z,18.33
2019-05-19T02:05:20.647Z,18.10
2019-05-19T02:10:23.023Z,18.27
2019-05-19T02:15:24.863Z,15.63
2019-05-19T02:20:33.303Z,17.97
2019-05-19T02:25:31.626Z,20.10
2019-05-19T02:30:33.987Z,15.00
2019-05-19T02:35:36.262Z,14.93
2019-05-19T02:40:39.606Z,12.90
2019-05-19T02:45:42.263Z,12.70
2019-05-19T02:50:52.366Z,13.07
2019-05-19T02:55:52.052Z,13.60
2019-05-19T03:00:54.874Z,11.87
2019-05-19T03:05:57.116Z,11.47
2019-05-19T03:10:59.650Z,11.77
2019-05-19T03:16:01.596Z,13.47
2019-05-19T03:21:10.860Z,14.97
2019-05-19T03:26:08.313Z,12.67
2019-05-19T03:31:33.378Z,15.63
2019-05-19T03:36:35.681Z,16.47
2019-05-19T03:41:38.239Z,13.37
2019-05-19T03:46:40.045Z,13.70
2019-05-19T03:51:42.054Z,14.03
2019-05-19T03:56:44.363Z,14.33
2019-05-19T04:01:46.262Z,13.63
2019-05-19T04:06:48.162Z,12.53
2019-05-19T04:11:50.429Z,12.70
2019-05-19T04:16:52.582Z,12.53
2019-05-19T04:21:55.197Z,15.83
2019-05-19T04:26:57.648Z,14.70
2019-05-19T04:31:59.604Z,13.67
2019-05-19T04:37:01.961Z,13.47
2019-05-19T04:42:04.136Z,14.60
2019-05-19T04:47:06.532Z,11.60
2019-05-19T04:52:08.349Z,13.43
2019-05-19T04:57:10.798Z,12.07
2019-05-19T05:02:12.889Z,13.03
2019-05-19T05:07:14.881Z,12.73
2019-05-19T05:12:16.891Z,12.77
2019-05-19T05:17:19.761Z,13.57
2019-05-19T05:22:22.930Z,11.73
2019-05-19T05:27:25.099Z,17.27
2019-05-19T05:32:27.539Z,12.60
2019-05-19T05:37:30.112Z,13.30
2019-05-19T05:42:32.194Z,15.17
2019-05-19T05:47:34.707Z,14.00
2019-05-19T05:52:38.949Z,12.00
2019-05-19T05:57:40.903Z,16.90
2019-05-19T06:02:42.753Z,14.93
2019-05-19T06:07:44.817Z,14.90
2019-05-19T06:12:46.733Z,12.43
2019-05-19T06:17:48.541Z,14.90
2019-05-19T06:22:56.689Z,15.17
2019-05-19T06:27:55.098Z,15.77
2019-05-19T06:32:58.609Z,13.37
2019-05-19T06:38:02.527Z,13.20
2019-05-19T06:43:05.383Z,16.33
2019-05-19T06:48:07.300Z,15.23
2019-05-19T06:53:14.164Z,14.23
2019-05-19T06:58:13.631Z,14.13
2019-05-19T07:03:16.149Z,13.77
2019-05-19T07:08:18.961Z,12.43
2019-05-19T07:13:21.236Z,11.73
2019-05-19T07:18:23.656Z,10.77
2019-05-19T07:23:28.162Z,12.47
2019-05-19T07:28:29.225Z,12.93
2019-05-19T07:33:31.292Z,10.13
2019-05-19T07:38:33.253Z,9.93
2019-05-19T07:43:35.455Z,8.43
2019-05-19T07:48:37.276Z,7.80
2019-05-19T07:53:43.133Z,9.20
2019-05-19T07:58:42.876Z,7.40
2019-05-19T08:03:45.529Z,7.07
2019-05-19T08:08:47.442Z,8.93
2019-05-19T08:13:51.039Z,6.70
2019-05-19T08:18:52.897Z,6.33
2019-05-19T08:24:00.419Z,6.80
2019-05-19T08:28:59.193Z,5.60
2019-05-19T08:34:01.777Z,5.90
2019-05-19T08:39:05.547Z,5.60
2019-05-19T08:44:08.049Z,8.10
2019-05-19T08:49:10.840Z,6.40
2019-05-19T08:54:15.897Z,6.63
2019-05-19T08:59:17.297Z,6.87
2019-05-19T09:04:19.130Z,9.33
2019-05-19T09:09:21.588Z,6.83
2019-05-19T09:14:23.571Z,6.57
2019-05-19T09:19:25.940Z,6.73
2019-05-19T09:24:30.850Z,6.77
2019-05-19T09:29:33.578Z,8.33
2019-05-19T09:34:36.145Z,6.20
2019-05-19T09:39:38.061Z,21.63
2019-05-19T09:44:40.508Z,6.77
2019-05-19T09:49:42.547Z,7.63
2019-05-19T09:54:46.015Z,5.10
2019-05-19T09:59:50.415Z,6.00
2019-05-19T10:04:52.461Z,5.07
2019-05-19T10:10:03.494Z,4.30
2019-05-19T10:15:06.783Z,4.53
2019-05-19T10:20:12.358Z,4.67
2019-05-19T10:25:23.091Z,5.93
2019-05-19T10:30:19.808Z,5.53
2019-05-19T10:35:22.032Z,5.20
2019-05-19T10:40:24.294Z,5.15
2019-05-19T10:45:26.170Z,5.37
2019-05-19T10:50:28.597Z,5.87
2019-05-19T10:55:36.437Z,7.07
2019-05-19T11:00:35.105Z,6.17
2019-05-19T11:05:37.118Z,7.10
2019-05-19T11:10:39.261Z,5.80
2019-05-19T11:15:41.264Z,7.47
2019-05-19T11:20:43.828Z,6.00
2019-05-19T11:25:51.367Z,5.67
2019-05-19T11:30:50.428Z,5.80
2019-05-19T11:35:54.696Z,6.23
2019-05-19T11:40:57.285Z,5.87
2019-05-19T11:45:59.448Z,6.37
2019-05-19T11:51:01.279Z,6.73
2019-05-19T11:56:06.704Z,8.20
2019-05-19T12:01:06.963Z,6.37
2019-05-19T12:06:09.875Z,6.93
2019-05-19T12:11:11.812Z,6.23
2019-05-19T12:16:13.784Z,6.30
2019-05-19T12:21:15.805Z,8.50
2019-05-19T12:26:23.077Z,7.03
2019-05-19T12:31:22.457Z,7.90
2019-05-19T12:36:24.962Z,7.03
2019-05-19T12:41:27.164Z,7.67
2019-05-19T12:46:29.264Z,6.70
2019-05-19T12:51:31.526Z,12.53
2019-05-19T12:56:39.496Z,6.60
2019-05-19T13:01:37.656Z,8.23
2019-05-19T13:06:39.839Z,6.50
2019-05-19T13:11:42.556Z,7.60
2019-05-19T13:16:45.138Z,8.20
2019-05-19T13:21:48.141Z,6.60
2019-05-19T13:26:56.671Z,10.47
2019-05-19T13:31:54.564Z,8.00
2019-05-19T13:36:57.090Z,7.30
2019-05-19T13:41:59.232Z,9.67
2019-05-19T13:47:01.718Z,8.17
2019-05-19T13:52:03.781Z,7.50
2019-05-19T13:57:12.142Z,6.07
2019-05-19T14:02:10.121Z,7.63
2019-05-19T14:07:11.936Z,5.50
2019-05-19T14:12:14.350Z,6.20
2019-05-19T14:17:16.622Z,6.50
2019-05-19T14:22:18.589Z,8.07
2019-05-19T14:27:29.488Z,7.40
2019-05-19T14:32:24.859Z,7.50
2019-05-19T14:37:26.682Z,7.03
2019-05-19T14:42:45.833Z,6.53
2019-05-19T14:47:49.683Z,7.40
2019-05-19T14:52:51.600Z,10.13
2019-05-19T14:57:53.536Z,7.30
2019-05-19T15:02:55.640Z,6.53
2019-05-19T15:07:57.960Z,6.23
2019-05-19T15:13:00.571Z,8.10
2019-05-19T15:18:02.964Z,7.57
2019-05-19T15:23:05.745Z,7.27
2019-05-19T15:28:07.598Z,6.97
2019-05-19T15:33:10.313Z,7.40
2019-05-19T15:38:12.627Z,9.57
2019-05-19T15:43:15.425Z,8.73
2019-05-19T15:48:17.472Z,10.77
2019-05-19T15:53:19.352Z,8.60
2019-05-19T15:58:21.282Z,10.27
2019-05-19T16:03:23.344Z,8.87
2019-05-19T16:08:25.219Z,9.77
2019-05-19T16:13:27.097Z,7.67
2019-05-19T16:18:28.955Z,8.40
2019-05-19T16:23:31.101Z,10.63
2019-05-19T16:28:32.993Z,8.93
2019-05-19T16:33:34.893Z,9.63
2019-05-19T16:38:37.425Z,8.00
2019-05-19T16:43:39.297Z,8.13
2019-05-19T16:48:41.291Z,7.93
2019-05-19T16:53:45.155Z,9.13
2019-05-19T16:58:47.072Z,10.47
2019-05-19T17:03:48.819Z,9.40
2019-05-19T17:08:50.608Z,11.57
2019-05-19T17:13:52.872Z,9.33
2019-05-19T17:18:55.000Z,10.03
2019-05-19T17:23:57.471Z,12.53
2019-05-19T17:29:00.875Z,9.97
2019-05-19T17:34:03.567Z,9.93
2019-05-19T17:39:06.997Z,18.00
2019-05-19T17:44:09.465Z,13.80
2019-05-19T17:49:11.276Z,10.50
2019-05-19T17:54:13.433Z,10.97
2019-05-19T17:59:16.917Z,12.07
2019-05-19T18:04:18.874Z,11.53
2019-05-19T18:09:20.817Z,10.90
2019-05-19T18:14:22.632Z,11.80
2019-05-19T18:19:24.507Z,12.37
2019-05-19T18:24:26.345Z,11.07
2019-05-19T18:29:31.475Z,15.17
2019-05-19T18:34:32.494Z,9.90
2019-05-19T18:39:34.787Z,9.70
2019-05-19T18:44:37.034Z,10.43
2019-05-19T18:49:39.951Z,8.80
2019-05-19T18:54:41.848Z,8.70
2019-05-19T18:59:47.418Z,9.50
2019-05-19T19:04:47.385Z,9.40
2019-05-19T19:09:49.456Z,10.60
2019-05-19T19:14:51.782Z,9.60
2019-05-19T19:19:53.734Z,10.40
2019-05-19T19:24:55.674Z,11.00
2019-05-19T19:30:03.537Z,10.57
2019-05-19T19:35:02.529Z,10.27
2019-05-19T19:40:05.340Z,10.87
2019-05-19T19:45:07.952Z,10.70
2019-05-19T19:50:10.221Z,12.37
2019-05-19T19:55:12.028Z,12.03
2019-05-19T20:00:22.384Z,11.27
2019-05-19T20:05:25.034Z,11.50
2019-05-19T20:10:26.958Z,10.67
2019-05-19T20:15:28.882Z,11.17
2019-05-19T20:20:30.885Z,10.00
2019-05-19T20:25:33.312Z,10.93
2019-05-19T20:30:36.730Z,10.73
2019-05-19T20:35:39.937Z,10.50
2019-05-19T20:40:42.824Z,10.67
2019-05-19T20:45:45.334Z,11.43
2019-05-19T20:50:48.026Z,11.00
2019-05-19T20:55:50.507Z,11.07
2019-05-19T21:00:55.109Z,12.90
2019-05-19T21:05:57.382Z,14.13
2019-05-19T21:10:59.796Z,12.47
2019-05-19T21:16:02.479Z,13.07
2019-05-19T21:21:06.458Z,12.50
2019-05-19T21:26:08.417Z,14.57
2019-05-19T21:31:10.610Z,11.50
2019-05-19T21:36:12.798Z,11.00
2019-05-19T21:41:14.700Z,14.80
2019-05-19T21:46:16.976Z,12.10
2019-05-19T21:51:18.984Z,12.17
2019-05-19T21:56:21.884Z,12.40
2019-05-19T22:01:23.957Z,11.73
2019-05-19T22:06:27.792Z,12.50
2019-05-19T22:11:29.941Z,13.50
2019-05-19T22:16:32.492Z,14.70
2019-05-19T22:21:34.649Z,17.77
2019-05-19T22:26:37.428Z,12.50
2019-05-19T22:31:39.592Z,13.63
2019-05-19T22:36:41.885Z,14.93
2019-05-19T22:41:44.173Z,15.23
2019-05-19T22:46:46.105Z,18.77
2019-05-19T22:51:48.068Z,18.57
2019-05-19T22:56:50.412Z,16.93
2019-05-19T23:01:52.337Z,14.43
2019-05-19T23:06:54.444Z,14.20
2019-05-19T23:11:56.851Z,15.30
2019-05-19T23:16:59.548Z,14.47
2019-05-19T23:22:01.624Z,14.73
2019-05-19T23:27:03.713Z,19.87
2019-05-19T23:32:07.500Z,20.50
2019-05-19T23:37:09.516Z,22.03
2019-05-19T23:42:11.700Z,17.97
2019-05-19T23:47:13.801Z,16.90
2019-05-19T23:52:15.784Z,16.33
2019-05-19T23:57:17.991Z,17.10
